createdAt,value
2019-03-17T00:01:24.247Z,39.27
2019-03-17T00:03:50.393Z,38.97
2019-03-17T00:06:16.238Z,39.10
2019-03-17T00:08:42.047Z,38.40
2019-03-17T00:11:07.947Z,38.87
2019-03-17T00:13:33.763Z,38.97
2019-03-17T00:15:59.596Z,37.70
2019-03-17T00:18:25.545Z,39.80
2019-03-17T00:20:54.495Z,38.77
2019-03-17T00:23:20.362Z,39.10
2019-03-17T00:25:46.221Z,38.90
2019-03-17T00:28:12.041Z,40.30
2019-03-17T00:30:39.607Z,38.57
2019-03-17T00:33:05.422Z,38.53
2019-03-17T00:35:31.291Z,37.57
2019-03-17T00:37:57.138Z,38.33
2019-03-17T00:40:22.979Z,37.33
2019-03-17T00:42:48.914Z,36.53
2019-03-17T00:45:14.954Z,37.07
2019-03-17T00:47:42.731Z,37.00
2019-03-17T00:50:09.753Z,36.70
2019-03-17T00:52:35.790Z,35.37
2019-03-17T00:55:01.828Z,36.63
2019-03-17T00:57:28.149Z,37.37
2019-03-17T00:59:54.089Z,38.57
2019-03-17T01:02:19.996Z,39.43
2019-03-17T01:04:55.643Z,38.63
2019-03-17T01:07:14.993Z,40.33
2019-03-17T01:09:40.810Z,40.47
2019-03-17T01:12:06.806Z,39.73
2019-03-17T01:14:32.646Z,39.47
2019-03-17T01:16:58.582Z,40.83
2019-03-17T01:19:24.603Z,40.27
2019-03-17T01:21:50.458Z,38.57
2019-03-17T01:24:16.291Z,39.03
2019-03-17T01:26:42.279Z,39.40
2019-03-17T01:29:08.140Z,39.37
2019-03-17T01:31:34.109Z,39.03
2019-03-17T01:34:00.013Z,41.03
2019-03-17T01:36:25.975Z,38.93
2019-03-17T01:38:51.896Z,40.73
2019-03-17T01:41:17.937Z,39.97
2019-03-17T01:43:43.888Z,39.43
2019-03-17T01:46:09.826Z,41.57
2019-03-17T01:48:35.680Z,40.60
2019-03-17T01:51:01.564Z,40.40
2019-03-17T01:53:27.455Z,41.87
2019-03-17T01:55:53.410Z,40.93
2019-03-17T01:58:19.405Z,40.20
2019-03-17T02:00:45.349Z,38.33
2019-03-17T02:03:11.317Z,40.23
2019-03-17T02:05:37.216Z,39.77
2019-03-17T02:08:03.066Z,39.30
2019-03-17T02:10:29.086Z,38.40
2019-03-17T02:12:55.026Z,37.77
2019-03-17T02:15:21.160Z,37.50
2019-03-17T02:17:47.044Z,35.87
2019-03-17T02:20:12.975Z,36.53
2019-03-17T02:22:38.919Z,36.63
2019-03-17T02:25:05.410Z,35.10
2019-03-17T02:27:31.234Z,36.03
2019-03-17T02:29:57.101Z,34.57
2019-03-17T02:32:23.047Z,36.83
2019-03-17T02:34:50.780Z,37.47
2019-03-17T02:37:16.713Z,38.53
2019-03-17T02:39:42.720Z,38.00
2019-03-17T02:42:08.675Z,39.07
2019-03-17T02:44:34.508Z,38.97
2019-03-17T02:47:00.353Z,39.57
2019-03-17T02:49:26.255Z,38.33
2019-03-17T02:51:52.196Z,39.50
2019-03-17T02:54:18.034Z,39.90
2019-03-17T02:56:43.929Z,39.80
2019-03-17T02:59:09.773Z,41.03
2019-03-17T03:01:35.736Z,40.17
2019-03-17T03:04:01.740Z,39.47
2019-03-17T03:06:27.694Z,41.50
2019-03-17T03:08:53.627Z,41.80
2019-03-17T03:11:19.532Z,39.43
2019-03-17T03:13:45.354Z,41.67
2019-03-17T03:16:11.306Z,41.73
2019-03-17T03:18:37.441Z,42.00
2019-03-17T03:21:03.381Z,41.60
2019-03-17T03:23:29.215Z,41.77
2019-03-17T03:25:55.064Z,41.03
2019-03-17T03:28:21.055Z,43.33
2019-03-17T03:30:47.013Z,42.80
2019-03-17T03:33:12.933Z,42.90
2019-03-17T03:35:38.991Z,42.10
2019-03-17T03:38:04.905Z,42.33
2019-03-17T03:40:31.132Z,42.27
2019-03-17T03:42:57.879Z,43.47
2019-03-17T03:45:23.890Z,42.90
2019-03-17T03:47:50.106Z,44.27
2019-03-17T03:50:16.259Z,42.60
2019-03-17T03:52:42.117Z,43.87
2019-03-17T03:55:08.451Z,43.93
2019-03-17T03:57:34.565Z,44.67
2019-03-17T04:00:02.128Z,45.00
2019-03-17T04:02:28.178Z,43.03
2019-03-17T04:04:54.072Z,43.77
2019-03-17T04:07:19.896Z,44.97
2019-03-17T04:09:45.945Z,44.40
2019-03-17T04:12:11.903Z,42.63
2019-03-17T04:14:37.779Z,41.43
2019-03-17T04:17:03.606Z,41.57
2019-03-17T04:19:29.549Z,40.83
2019-03-17T04:21:55.413Z,39.73
2019-03-17T04:24:21.250Z,42.20
2019-03-17T04:26:47.085Z,42.23
2019-03-17T04:29:13.084Z,41.10
2019-03-17T04:31:38.897Z,40.73
2019-03-17T04:34:04.820Z,40.73
2019-03-17T04:36:40.056Z,41.37
2019-03-17T04:38:58.543Z,38.97
2019-03-17T04:41:24.475Z,38.40
2019-03-17T04:43:50.354Z,39.63
2019-03-17T04:46:16.958Z,40.00
2019-03-17T04:48:43.129Z,39.33
2019-03-17T04:51:09.301Z,38.70
2019-03-17T04:53:35.113Z,39.03
2019-03-17T04:56:00.956Z,40.87
2019-03-17T04:58:26.882Z,44.00
2019-03-17T05:00:52.863Z,44.37
2019-03-17T05:03:18.841Z,44.93
2019-03-17T05:05:44.735Z,43.10
2019-03-17T05:08:10.566Z,47.70
2019-03-17T05:10:36.621Z,46.10
2019-03-17T05:13:02.673Z,45.50
2019-03-17T05:15:28.521Z,46.27
2019-03-17T05:17:54.607Z,48.83
2019-03-17T05:20:20.412Z,47.27
2019-03-17T05:22:46.393Z,48.90
2019-03-17T05:25:12.361Z,47.10
2019-03-17T05:27:38.593Z,46.90
2019-03-17T05:30:07.670Z,47.77
2019-03-17T05:32:33.507Z,46.90
2019-03-17T05:34:59.341Z,47.37
2019-03-17T05:37:25.247Z,47.03
2019-03-17T05:39:51.176Z,46.87
2019-03-17T05:42:17.145Z,45.57
2019-03-17T05:44:42.962Z,44.43
2019-03-17T05:47:08.807Z,44.40
2019-03-17T05:49:34.716Z,43.07
2019-03-17T05:52:00.564Z,43.50
2019-03-17T05:54:26.380Z,42.23
2019-03-17T05:56:52.341Z,42.13
2019-03-17T05:59:19.631Z,42.13
2019-03-17T06:01:45.698Z,40.97
2019-03-17T06:04:11.551Z,42.40
2019-03-17T06:06:40.979Z,42.67
2019-03-17T06:09:06.996Z,42.13
2019-03-17T06:11:32.851Z,39.33
2019-03-17T06:13:58.813Z,40.37
2019-03-17T06:16:24.692Z,41.90
2019-03-17T06:18:50.649Z,41.37
2019-03-17T06:21:16.490Z,41.03
2019-03-17T06:23:42.374Z,43.57
2019-03-17T06:26:08.233Z,41.33
2019-03-17T06:28:34.290Z,42.23
2019-03-17T06:31:00.243Z,39.37
2019-03-17T06:33:26.077Z,40.43
2019-03-17T06:35:52.008Z,40.90
2019-03-17T06:38:18.128Z,41.27
2019-03-17T06:40:43.945Z,40.23
2019-03-17T06:43:09.880Z,41.70
2019-03-17T06:45:35.882Z,41.10
2019-03-17T06:48:01.720Z,41.37
2019-03-17T06:50:27.560Z,42.20
2019-03-17T06:52:53.848Z,41.00
2019-03-17T06:55:19.807Z,41.03
2019-03-17T06:57:45.640Z,41.80
2019-03-17T07:00:12.749Z,40.67
2019-03-17T07:02:38.593Z,40.77
2019-03-17T07:05:06.037Z,40.77
2019-03-17T07:07:43.377Z,41.30
2019-03-17T07:09:59.838Z,40.53
2019-03-17T07:12:25.642Z,40.20
2019-03-17T07:14:51.721Z,41.07
2019-03-17T07:17:19.352Z,42.47
2019-03-17T07:19:45.374Z,45.27
2019-03-17T07:22:12.013Z,44.93
2019-03-17T07:24:37.958Z,43.63
2019-03-17T07:27:03.844Z,45.27
2019-03-17T07:29:29.696Z,48.90
2019-03-17T07:31:55.540Z,48.13
2019-03-17T07:34:21.581Z,45.80
2019-03-17T07:36:47.509Z,50.90
2019-03-17T07:39:13.335Z,49.67
2019-03-17T07:41:39.222Z,50.23
2019-03-17T07:44:05.255Z,50.30
2019-03-17T07:46:31.111Z,48.33
2019-03-17T07:48:56.973Z,48.93
2019-03-17T07:51:22.802Z,50.60
2019-03-17T07:53:48.693Z,49.83
2019-03-17T07:56:14.545Z,48.93
2019-03-17T07:58:40.481Z,50.53
2019-03-17T08:01:06.346Z,48.30
2019-03-17T08:03:32.292Z,48.73
2019-03-17T08:05:58.259Z,48.73
2019-03-17T08:08:24.190Z,47.43
2019-03-17T08:10:49.966Z,46.77
2019-03-17T08:13:15.808Z,44.93
2019-03-17T08:15:41.754Z,44.00
2019-03-17T08:18:07.585Z,43.87
2019-03-17T08:20:33.437Z,43.97
2019-03-17T08:22:59.339Z,43.57
2019-03-17T08:25:25.199Z,39.80
2019-03-17T08:27:51.035Z,41.40
2019-03-17T08:30:17.046Z,38.60
2019-03-17T08:32:42.888Z,27.73
2019-03-17T08:35:09.205Z,25.00
2019-03-17T08:37:35.109Z,23.63
2019-03-17T08:40:01.171Z,25.87
2019-03-17T08:42:27.023Z,25.33
2019-03-17T08:44:53.020Z,24.40
2019-03-17T08:47:18.969Z,23.17
2019-03-17T08:49:44.796Z,24.13
2019-03-17T08:52:10.766Z,23.23
2019-03-17T08:54:36.604Z,24.27
2019-03-17T08:57:02.622Z,24.90
2019-03-17T08:59:28.479Z,24.13
2019-03-17T09:01:54.313Z,24.40
2019-03-17T09:04:20.270Z,23.27
2019-03-17T09:06:49.406Z,25.60
2019-03-17T09:09:17.354Z,25.50
2019-03-17T09:11:43.724Z,24.80
2019-03-17T09:14:09.614Z,25.10
2019-03-17T09:16:35.623Z,26.40
2019-03-17T09:19:01.576Z,25.03
2019-03-17T09:21:27.392Z,25.33
2019-03-17T09:23:53.379Z,23.63
2019-03-17T09:26:19.318Z,25.07
2019-03-17T09:28:45.170Z,25.10
2019-03-17T09:31:11.016Z,24.50
2019-03-17T09:33:36.862Z,25.67
2019-03-17T09:36:02.843Z,24.87
2019-03-17T09:38:28.806Z,24.47
2019-03-17T09:40:54.651Z,24.10
2019-03-17T09:43:21.520Z,24.43
2019-03-17T09:45:47.315Z,25.00
2019-03-17T09:48:13.191Z,24.23
2019-03-17T09:50:39.641Z,24.23
2019-03-17T09:53:05.572Z,24.00
2019-03-17T09:55:31.407Z,25.20
2019-03-17T09:57:57.271Z,23.13
2019-03-17T10:00:23.136Z,23.63
2019-03-17T10:02:48.999Z,23.50
2019-03-17T10:05:15.043Z,24.07
2019-03-17T10:07:40.999Z,24.03
2019-03-17T10:10:16.285Z,23.43
2019-03-17T10:12:42.203Z,22.37
2019-03-17T10:15:11.873Z,23.63
2019-03-17T10:17:37.817Z,23.60
2019-03-17T10:20:12.310Z,23.93
2019-03-17T10:22:40.681Z,24.00
2019-03-17T10:25:08.642Z,25.47
2019-03-17T10:27:34.438Z,25.63
2019-03-17T10:30:00.731Z,25.37
2019-03-17T10:32:26.568Z,25.47
2019-03-17T10:34:52.457Z,24.20
2019-03-17T10:37:18.455Z,26.40
2019-03-17T10:39:44.317Z,25.63
2019-03-17T10:42:10.147Z,23.97
2019-03-17T10:44:36.053Z,26.40
2019-03-17T10:47:01.888Z,25.63
2019-03-17T10:49:27.706Z,24.43
2019-03-17T10:51:53.581Z,24.87
2019-03-17T10:54:19.512Z,24.87
2019-03-17T10:56:45.404Z,24.97
2019-03-17T10:59:11.257Z,25.07
2019-03-17T11:01:37.087Z,24.80
2019-03-17T11:04:03.331Z,23.97
2019-03-17T11:06:29.259Z,24.60
2019-03-17T11:08:55.143Z,25.20
2019-03-17T11:11:21.025Z,24.13
2019-03-17T11:13:46.853Z,26.40
2019-03-17T11:16:12.706Z,25.70
2019-03-17T11:18:39.608Z,26.57
2019-03-17T11:21:05.451Z,27.47
2019-03-17T11:23:31.290Z,26.17
2019-03-17T11:25:57.173Z,27.53
2019-03-17T11:28:23.116Z,26.90
2019-03-17T11:30:56.727Z,26.83
2019-03-17T11:33:22.571Z,26.70
2019-03-17T11:35:48.489Z,25.83
2019-03-17T11:38:14.336Z,26.07
2019-03-17T11:40:40.170Z,25.77
2019-03-17T11:43:06.962Z,27.37
2019-03-17T11:45:32.893Z,25.73
2019-03-17T11:47:58.741Z,27.00
2019-03-17T11:50:24.811Z,27.23
2019-03-17T11:52:50.858Z,27.43
2019-03-17T11:55:16.940Z,26.80
2019-03-17T11:57:42.905Z,26.30
2019-03-17T12:00:18.860Z,27.20
2019-03-17T12:02:44.838Z,28.03
2019-03-17T12:05:11.098Z,27.37
2019-03-17T12:07:37.264Z,28.83
2019-03-17T12:10:09.617Z,27.70
2019-03-17T12:12:35.448Z,28.63
2019-03-17T12:15:01.614Z,27.77
2019-03-17T12:17:30.978Z,26.53
2019-03-17T12:19:56.994Z,26.37
2019-03-17T12:22:22.870Z,27.80
2019-03-17T12:24:48.725Z,28.75
2019-03-17T12:27:14.573Z,26.40
2019-03-17T12:29:40.530Z,27.93
2019-03-17T12:32:06.521Z,26.20
2019-03-17T12:34:32.460Z,26.13
2019-03-17T12:36:58.305Z,25.17
2019-03-17T12:39:24.374Z,28.20
2019-03-17T12:41:50.214Z,26.67
2019-03-17T12:44:16.054Z,27.73
2019-03-17T12:46:42.027Z,27.17
2019-03-17T12:49:09.627Z,27.10
2019-03-17T12:51:35.552Z,26.50
2019-03-17T12:54:03.493Z,28.00
2019-03-17T12:56:31.645Z,25.60
2019-03-17T12:58:57.816Z,26.53
2019-03-17T13:01:23.794Z,29.20
2019-03-17T13:03:49.741Z,28.77
2019-03-17T13:06:15.856Z,27.03
2019-03-17T13:08:41.929Z,28.43
2019-03-17T13:11:07.881Z,26.73
2019-03-17T13:13:34.001Z,26.87
2019-03-17T13:16:01.210Z,25.93
2019-03-17T13:18:27.120Z,26.37
2019-03-17T13:20:53.196Z,26.60
2019-03-17T13:23:21.646Z,26.93
2019-03-17T13:25:49.788Z,26.67
2019-03-17T13:28:15.758Z,26.33
2019-03-17T13:30:43.616Z,25.17
2019-03-17T13:33:09.704Z,25.83
2019-03-17T13:35:36.886Z,24.43
2019-03-17T13:38:03.071Z,25.80
2019-03-17T13:40:30.211Z,24.50
2019-03-17T13:42:56.328Z,24.43
2019-03-17T13:45:22.348Z,24.53
2019-03-17T13:47:48.424Z,24.53
2019-03-17T13:50:19.606Z,24.87
2019-03-17T13:52:45.690Z,23.50
2019-03-17T13:55:11.610Z,21.73
2019-03-17T13:57:38.153Z,19.98
2019-03-17T14:00:07.906Z,21.02
2019-03-17T14:02:33.766Z,21.77
2019-03-17T14:04:59.730Z,22.65
2019-03-17T14:07:25.715Z,23.70
2019-03-17T14:09:51.577Z,23.20
2019-03-17T14:12:17.442Z,24.70
2019-03-17T14:14:43.419Z,24.07
2019-03-17T14:17:09.252Z,23.43
2019-03-17T14:19:35.074Z,22.83
2019-03-17T14:22:01.051Z,24.07
2019-03-17T14:24:26.936Z,23.43
2019-03-17T14:26:52.771Z,22.87
2019-03-17T14:29:18.619Z,23.70
2019-03-17T14:31:44.491Z,22.73
2019-03-17T14:34:10.426Z,22.47
2019-03-17T14:36:36.468Z,22.30
2019-03-17T14:39:04.825Z,22.53
2019-03-17T14:41:30.921Z,23.73
2019-03-17T14:43:56.737Z,23.37
2019-03-17T14:46:22.679Z,22.90
2019-03-17T14:48:48.534Z,23.10
2019-03-17T14:51:14.357Z,23.73
2019-03-17T14:53:40.262Z,25.97
2019-03-17T14:56:06.244Z,25.57
2019-03-17T14:58:32.082Z,24.63
2019-03-17T15:00:58.003Z,25.50
2019-03-17T15:03:23.846Z,26.67
2019-03-17T15:05:51.626Z,24.97
2019-03-17T15:08:17.503Z,25.87
2019-03-17T15:10:46.830Z,26.60
2019-03-17T15:13:12.677Z,28.23
2019-03-17T15:15:38.532Z,27.63
2019-03-17T15:18:04.357Z,27.63
2019-03-17T15:20:30.208Z,27.60
2019-03-17T15:22:56.168Z,26.70
2019-03-17T15:25:22.037Z,27.00
2019-03-17T15:27:47.961Z,26.77
2019-03-17T15:30:19.811Z,27.20
2019-03-17T15:32:45.748Z,27.17
2019-03-17T15:35:13.419Z,26.23
2019-03-17T15:37:39.634Z,31.07
2019-03-17T15:40:11.000Z,27.47
2019-03-17T15:42:36.899Z,27.03
2019-03-17T15:45:05.727Z,28.17
2019-03-17T15:47:34.554Z,29.30
2019-03-17T15:50:00.638Z,30.90
2019-03-17T15:52:26.492Z,28.63
2019-03-17T15:54:52.322Z,29.20
2019-03-17T15:57:18.153Z,29.97
2019-03-17T15:59:44.061Z,29.40
2019-03-17T16:02:09.961Z,28.70
2019-03-17T16:04:35.806Z,28.97
2019-03-17T16:07:02.114Z,29.60
2019-03-17T16:09:28.722Z,28.13
2019-03-17T16:11:58.449Z,28.43
2019-03-17T16:14:24.286Z,29.43
2019-03-17T16:16:50.281Z,30.10
2019-03-17T16:19:16.206Z,25.77
2019-03-17T16:21:42.092Z,26.60
2019-03-17T16:24:07.997Z,27.50
2019-03-17T16:26:33.829Z,27.23
2019-03-17T16:28:59.767Z,27.60
2019-03-17T16:31:25.597Z,27.00
2019-03-17T16:33:51.544Z,26.10
2019-03-17T16:36:17.372Z,26.43
2019-03-17T16:38:43.218Z,27.27
2019-03-17T16:41:09.092Z,25.80
2019-03-17T16:43:35.133Z,26.50
2019-03-17T16:46:01.223Z,26.73
2019-03-17T16:48:27.056Z,25.80
2019-03-17T16:50:52.894Z,25.57
2019-03-17T16:53:18.839Z,25.37
2019-03-17T16:55:44.693Z,25.53
2019-03-17T16:58:10.622Z,25.03
2019-03-17T17:00:36.710Z,18.80
2019-03-17T17:03:02.796Z,18.67
2019-03-17T17:05:35.046Z,16.87
2019-03-17T17:08:01.256Z,17.13
2019-03-17T17:10:28.229Z,16.70
2019-03-17T17:12:54.322Z,14.63
2019-03-17T17:15:23.333Z,15.37
2019-03-17T17:17:49.642Z,15.33
2019-03-17T17:20:18.120Z,12.77
2019-03-17T17:22:44.196Z,11.77
2019-03-17T17:25:10.729Z,13.03
2019-03-17T17:27:36.585Z,11.00
2019-03-17T17:30:06.083Z,11.60
2019-03-17T17:32:33.456Z,11.23
2019-03-17T17:34:59.306Z,12.00
2019-03-17T17:37:25.199Z,10.70
2019-03-17T17:39:51.036Z,9.30
2019-03-17T17:42:16.874Z,10.93
2019-03-17T17:44:42.823Z,10.07
2019-03-17T17:47:08.719Z,9.57
2019-03-17T17:49:34.656Z,10.07
2019-03-17T17:52:02.592Z,10.97
2019-03-17T17:54:28.355Z,9.10
2019-03-17T17:56:54.648Z,10.33
2019-03-17T17:59:20.468Z,10.40
2019-03-17T18:01:46.313Z,9.33
2019-03-17T18:04:12.269Z,9.17
2019-03-17T18:06:38.290Z,8.73
2019-03-17T18:09:05.730Z,8.40
2019-03-17T18:11:31.637Z,8.47
2019-03-17T18:13:57.521Z,8.07
2019-03-17T18:16:23.465Z,8.20
2019-03-17T18:18:49.358Z,7.83
2019-03-17T18:21:15.200Z,8.10
2019-03-17T18:23:41.061Z,8.13
2019-03-17T18:26:07.134Z,8.27
2019-03-17T18:28:33.110Z,8.23
2019-03-17T18:30:59.155Z,8.03
2019-03-17T18:33:25.152Z,7.93
2019-03-17T18:35:50.998Z,8.10
2019-03-17T18:38:16.896Z,8.33
2019-03-17T18:40:42.785Z,9.03
2019-03-17T18:43:08.748Z,8.47
2019-03-17T18:45:34.695Z,8.47
2019-03-17T18:48:00.773Z,8.37
2019-03-17T18:50:26.818Z,8.60
2019-03-17T18:52:52.758Z,8.10
2019-03-17T18:55:18.849Z,9.37
2019-03-17T18:57:44.905Z,9.28
2019-03-17T19:00:17.869Z,10.13
2019-03-17T19:02:44.037Z,16.03
2019-03-17T19:05:11.974Z,10.20
2019-03-17T19:07:37.936Z,9.80
2019-03-17T19:10:06.664Z,9.90
2019-03-17T19:12:44.622Z,9.63
2019-03-17T19:15:07.723Z,10.43
2019-03-17T19:17:33.683Z,10.17
2019-03-17T19:19:59.824Z,11.00
2019-03-17T19:22:25.642Z,10.37
2019-03-17T19:24:51.620Z,10.03
2019-03-17T19:27:17.574Z,11.43
2019-03-17T19:29:43.421Z,11.57
2019-03-17T19:32:09.391Z,10.83
2019-03-17T19:34:35.314Z,11.23
2019-03-17T19:37:01.183Z,11.03
2019-03-17T19:39:27.198Z,12.58
2019-03-17T19:41:53.150Z,11.03
2019-03-17T19:44:19.013Z,11.70
2019-03-17T19:46:44.856Z,11.20
2019-03-17T19:49:10.940Z,10.53
2019-03-17T19:51:36.893Z,9.10
2019-03-17T19:54:03.060Z,9.50
2019-03-17T19:56:29.917Z,10.07
2019-03-17T19:58:55.745Z,10.10
2019-03-17T20:01:21.578Z,10.73
2019-03-17T20:03:47.447Z,9.60
2019-03-17T20:06:13.287Z,8.90
2019-03-17T20:08:39.233Z,8.97
2019-03-17T20:11:06.642Z,8.83
2019-03-17T20:13:32.493Z,8.50
2019-03-17T20:15:58.365Z,8.10
2019-03-17T20:18:24.197Z,8.17
2019-03-17T20:20:50.440Z,8.70
2019-03-17T20:23:21.314Z,8.80
2019-03-17T20:25:48.012Z,7.70
2019-03-17T20:28:13.798Z,7.73
2019-03-17T20:30:39.764Z,7.47
2019-03-17T20:33:05.596Z,6.77
2019-03-17T20:35:31.543Z,7.07
2019-03-17T20:37:57.540Z,7.60
2019-03-17T20:40:23.616Z,7.40
2019-03-17T20:42:49.561Z,6.87
2019-03-17T20:45:15.657Z,7.47
2019-03-17T20:47:42.015Z,7.63
2019-03-17T20:50:16.159Z,8.17
2019-03-17T20:52:42.236Z,9.77
2019-03-17T20:55:09.542Z,7.93
2019-03-17T20:57:35.770Z,8.37
2019-03-17T21:00:04.565Z,8.53
2019-03-17T21:02:30.619Z,9.47
2019-03-17T21:04:58.054Z,9.17
2019-03-17T21:07:24.141Z,9.30
2019-03-17T21:09:51.418Z,11.67
2019-03-17T21:12:17.920Z,10.90
2019-03-17T21:14:44.035Z,10.93
2019-03-17T21:17:10.094Z,11.07
2019-03-17T21:19:36.215Z,12.87
2019-03-17T21:22:02.273Z,12.47
2019-03-17T21:24:30.255Z,12.07
2019-03-17T21:26:57.337Z,12.07
2019-03-17T21:29:25.222Z,12.83
2019-03-17T21:31:51.162Z,11.47
2019-03-17T21:34:17.091Z,12.67
2019-03-17T21:36:42.928Z,12.37
2019-03-17T21:39:08.872Z,12.47
2019-03-17T21:41:34.867Z,12.53
2019-03-17T21:44:00.821Z,24.27
2019-03-17T21:46:26.659Z,13.57
2019-03-17T21:48:52.549Z,13.57
2019-03-17T21:51:18.360Z,13.17
2019-03-17T21:53:44.183Z,13.23
2019-03-17T21:56:10.064Z,14.23
2019-03-17T21:58:35.896Z,13.67
2019-03-17T22:01:01.744Z,13.33
2019-03-17T22:03:27.634Z,13.80
2019-03-17T22:05:53.570Z,13.13
2019-03-17T22:08:19.409Z,12.67
2019-03-17T22:10:45.300Z,13.83
2019-03-17T22:13:11.118Z,13.40
2019-03-17T22:15:36.947Z,13.40
2019-03-17T22:18:03.130Z,13.67
2019-03-17T22:20:29.059Z,13.63
2019-03-17T22:22:54.900Z,13.17
2019-03-17T22:25:20.839Z,13.03
2019-03-17T22:27:46.690Z,13.40
2019-03-17T22:30:16.356Z,13.33
2019-03-17T22:32:42.317Z,12.90
2019-03-17T22:35:08.903Z,13.47
2019-03-17T22:37:34.997Z,12.80
2019-03-17T22:40:01.094Z,13.80
2019-03-17T22:42:26.988Z,13.67
2019-03-17T22:44:52.863Z,12.63
2019-03-17T22:47:18.826Z,13.77
2019-03-17T22:49:44.742Z,13.50
2019-03-17T22:52:11.079Z,13.40
2019-03-17T22:54:36.933Z,14.10
2019-03-17T22:57:03.696Z,12.67
2019-03-17T22:59:29.621Z,14.67
2019-03-17T23:01:55.436Z,14.10
2019-03-17T23:04:22.245Z,14.43
2019-03-17T23:06:48.359Z,13.70
2019-03-17T23:09:14.359Z,14.53
2019-03-17T23:11:40.210Z,13.10
2019-03-17T23:14:06.297Z,13.20
2019-03-17T23:16:32.195Z,13.30
2019-03-17T23:19:01.792Z,13.97
2019-03-17T23:21:27.658Z,13.67
2019-03-17T23:23:53.490Z,13.53
2019-03-17T23:26:19.373Z,13.50
2019-03-17T23:28:45.296Z,13.20
2019-03-17T23:31:11.233Z,13.63
2019-03-17T23:33:37.176Z,13.70
2019-03-17T23:36:03.148Z,13.40
2019-03-17T23:38:28.988Z,14.00
2019-03-17T23:40:54.865Z,13.30
2019-03-17T23:43:20.679Z,13.13
2019-03-17T23:45:46.537Z,13.33
2019-03-17T23:48:12.526Z,12.40
2019-03-17T23:50:38.378Z,13.20
2019-03-17T23:53:04.204Z,13.00
2019-03-17T23:55:30.252Z,12.17
2019-03-17T23:57:56.223Z,13.17
